createdAt,value
2023-05-05T00:01:47.367Z,5.06
2023-05-05T00:04:14.238Z,5.04
2023-05-05T00:06:40.926Z,4.99
2023-05-05T00:09:07.536Z,4.99
2023-05-05T00:11:33.999Z,5.06
2023-05-05T00:14:00.624Z,5.01
2023-05-05T00:16:27.453Z,4.96
2023-05-05T00:18:54.122Z,4.93
2023-05-05T00:21:20.717Z,4.89
2023-05-05T00:23:47.190Z,4.88
2023-05-05T00:26:14.107Z,4.87
2023-05-05T00:28:41.093Z,4.86
2023-05-05T00:31:07.841Z,4.93
2023-05-05T00:33:34.539Z,5.03
2023-05-05T00:36:01.289Z,5.09
2023-05-05T00:38:28.946Z,5.12
2023-05-05T00:40:55.906Z,5.10
2023-05-05T00:43:22.390Z,5.10
2023-05-05T00:45:48.914Z,5.06
2023-05-05T00:48:17.130Z,5.07
2023-05-05T00:50:44.997Z,5.10
2023-05-05T00:53:11.975Z,5.08
2023-05-05T00:55:38.565Z,5.10
2023-05-05T00:58:05.173Z,5.09
2023-05-05T01:00:31.753Z,5.06
2023-05-05T01:02:59.370Z,5.01
2023-05-05T01:05:28.109Z,4.99
2023-05-05T01:08:14.849Z,4.94
2023-05-05T01:10:46.165Z,4.91
2023-05-05T01:13:44.247Z,4.92
2023-05-05T01:16:18.104Z,4.84
2023-05-05T01:19:05.226Z,4.84
2023-05-05T01:21:50.498Z,4.84
2023-05-05T01:24:45.647Z,4.87
2023-05-05T01:27:49.248Z,4.84
2023-05-05T01:30:34.315Z,4.83
2023-05-05T01:33:06.754Z,4.80
2023-05-05T01:35:36.737Z,4.93
2023-05-05T01:38:07.247Z,5.03
2023-05-05T01:40:39.369Z,5.14
2023-05-05T01:43:06.968Z,5.12
2023-05-05T01:45:35.820Z,5.07
2023-05-05T01:48:02.564Z,5.04
2023-05-05T01:50:29.260Z,5.00
2023-05-05T01:52:58.023Z,5.01
2023-05-05T01:55:25.687Z,5.03
2023-05-05T01:57:53.320Z,4.96
2023-05-05T02:00:19.990Z,5.00
2023-05-05T02:02:47.740Z,4.97
2023-05-05T02:05:14.329Z,4.95
2023-05-05T02:07:41.151Z,4.91
2023-05-05T02:10:10.456Z,4.87
2023-05-05T02:12:37.240Z,4.84
2023-05-05T02:15:05.047Z,4.84
2023-05-05T02:17:31.686Z,4.87
2023-05-05T02:19:59.056Z,4.94
2023-05-05T02:22:25.782Z,4.96
2023-05-05T02:24:52.465Z,4.94
2023-05-05T02:27:19.163Z,4.92
2023-05-05T02:29:53.394Z,4.91
2023-05-05T02:32:32.762Z,4.93
2023-05-05T02:35:04.304Z,4.95
2023-05-05T02:37:31.088Z,4.88
2023-05-05T02:40:06.263Z,4.96
2023-05-05T02:42:38.982Z,5.05
2023-05-05T02:45:12.276Z,5.12
2023-05-05T02:47:40.722Z,5.18
2023-05-05T02:50:08.378Z,5.35
2023-05-05T02:52:35.614Z,5.54
2023-05-05T02:55:03.240Z,5.60
2023-05-05T02:57:37.928Z,5.57
2023-05-05T03:00:14.078Z,5.47
2023-05-05T03:02:50.194Z,5.50
2023-05-05T03:05:19.932Z,5.49
2023-05-05T03:08:03.620Z,5.46
2023-05-05T03:10:35.168Z,5.48
2023-05-05T03:13:02.733Z,5.48
2023-05-05T03:15:49.538Z,5.45
2023-05-05T03:18:18.606Z,5.46
2023-05-05T03:20:48.264Z,5.47
2023-05-05T03:23:18.390Z,5.45
2023-05-05T03:25:47.091Z,5.44
2023-05-05T03:28:20.155Z,5.42
2023-05-05T03:30:46.630Z,5.45
2023-05-05T03:33:14.067Z,5.42
2023-05-05T03:35:40.773Z,5.43
2023-05-05T03:38:08.421Z,5.42
2023-05-05T03:40:43.569Z,5.38
2023-05-05T03:43:11.942Z,5.34
2023-05-05T03:45:38.724Z,5.26
2023-05-05T03:48:06.639Z,5.25
2023-05-05T03:50:33.268Z,5.25
2023-05-05T03:52:59.903Z,5.28
2023-05-05T03:55:26.853Z,5.30
2023-05-05T03:57:53.370Z,5.29
2023-05-05T04:00:20.042Z,5.35
2023-05-05T04:02:46.688Z,5.36
2023-05-05T04:05:13.954Z,5.36
2023-05-05T04:07:40.563Z,5.35
2023-05-05T04:10:08.756Z,5.35
2023-05-05T04:12:35.823Z,5.34
2023-05-05T04:15:02.622Z,5.35
2023-05-05T04:17:29.208Z,5.45
2023-05-05T04:19:55.778Z,5.47
2023-05-05T04:22:22.447Z,5.54
2023-05-05T04:24:49.148Z,5.56
2023-05-05T04:27:15.932Z,5.58
2023-05-05T04:29:42.586Z,5.61
2023-05-05T04:32:09.594Z,5.61
2023-05-05T04:34:36.218Z,5.60
2023-05-05T04:37:02.930Z,5.58
2023-05-05T04:39:29.985Z,5.54
2023-05-05T04:41:56.793Z,5.57
2023-05-05T04:44:23.973Z,5.67
2023-05-05T04:46:50.948Z,5.74
2023-05-05T04:49:17.487Z,5.78
2023-05-05T04:51:44.117Z,5.82
2023-05-05T04:54:10.672Z,5.89
2023-05-05T04:56:37.228Z,5.96
2023-05-05T04:59:03.788Z,6.05
2023-05-05T05:01:30.425Z,6.03
2023-05-05T05:03:57.039Z,6.01
2023-05-05T05:06:23.910Z,6.06
2023-05-05T05:08:50.329Z,6.11
2023-05-05T05:11:16.852Z,6.11
2023-05-05T05:13:43.441Z,6.15
2023-05-05T05:16:09.975Z,6.18
2023-05-05T05:18:36.463Z,6.22
2023-05-05T05:21:03.501Z,6.25
2023-05-05T05:23:30.093Z,6.31
2023-05-05T05:25:57.159Z,6.38
2023-05-05T05:28:23.820Z,6.39
2023-05-05T05:30:53.947Z,6.42
2023-05-05T05:33:20.587Z,6.48
2023-05-05T05:35:47.634Z,6.54
2023-05-05T05:38:14.530Z,6.53
2023-05-05T05:40:41.192Z,6.55
2023-05-05T05:43:07.652Z,6.58
2023-05-05T05:45:34.625Z,6.63
2023-05-05T05:48:01.789Z,6.72
2023-05-05T05:50:28.773Z,7.01
2023-05-05T05:52:55.872Z,7.29
2023-05-05T05:55:22.623Z,7.43
2023-05-05T05:57:49.170Z,7.51
2023-05-05T06:00:16.196Z,7.61
2023-05-05T06:02:45.162Z,7.95
2023-05-05T06:05:14.004Z,8.54
2023-05-05T06:07:41.261Z,9.11
2023-05-05T06:10:25.819Z,9.56
2023-05-05T06:12:54.097Z,10.00
2023-05-05T06:15:20.673Z,10.41
2023-05-05T06:17:47.354Z,10.45
2023-05-05T06:20:13.955Z,10.21
2023-05-05T06:22:40.568Z,10.11
2023-05-05T06:25:07.609Z,10.50
2023-05-05T06:27:34.508Z,10.89
2023-05-05T06:30:01.164Z,10.89
2023-05-05T06:32:27.685Z,11.09
2023-05-05T06:34:54.255Z,11.22
2023-05-05T06:37:20.769Z,11.64
2023-05-05T06:39:47.289Z,11.83
2023-05-05T06:42:13.754Z,12.12
2023-05-05T06:44:40.305Z,12.43
2023-05-05T06:47:06.921Z,12.59
2023-05-05T06:49:33.641Z,12.80
2023-05-05T06:52:00.183Z,13.01
2023-05-05T06:54:26.838Z,13.14
2023-05-05T06:56:53.398Z,12.97
2023-05-05T06:59:19.897Z,12.94
2023-05-05T07:01:46.391Z,13.24
2023-05-05T07:04:13.082Z,13.17
2023-05-05T07:06:39.753Z,13.28
2023-05-05T07:09:06.725Z,13.23
2023-05-05T07:11:33.304Z,13.23
2023-05-05T07:13:59.844Z,13.12
2023-05-05T07:16:27.294Z,12.86
2023-05-05T07:18:53.927Z,12.86
2023-05-05T07:21:20.406Z,12.59
2023-05-05T07:23:47.818Z,12.19
2023-05-05T07:26:15.180Z,11.90
2023-05-05T07:28:43.143Z,11.72
2023-05-05T07:31:09.747Z,11.61
2023-05-05T07:33:36.230Z,11.65
2023-05-05T07:36:02.957Z,11.58
2023-05-05T07:38:29.505Z,11.39
2023-05-05T07:40:55.987Z,11.22
2023-05-05T07:43:22.475Z,11.14
2023-05-05T07:45:48.984Z,11.08
2023-05-05T07:48:15.506Z,11.03
2023-05-05T07:50:42.220Z,11.13
2023-05-05T07:53:14.438Z,11.32
2023-05-05T07:55:41.880Z,12.17
2023-05-05T07:58:08.638Z,12.60
2023-05-05T08:00:35.632Z,12.66
2023-05-05T08:03:02.275Z,12.58
2023-05-05T08:05:28.876Z,12.37
2023-05-05T08:07:55.477Z,12.17
2023-05-05T08:10:22.421Z,12.05
2023-05-05T08:12:49.169Z,11.84
2023-05-05T08:15:15.855Z,11.58
2023-05-05T08:17:50.633Z,11.38
2023-05-05T08:20:17.933Z,11.18
2023-05-05T08:22:44.714Z,11.01
2023-05-05T08:25:11.563Z,10.85
2023-05-05T08:27:39.203Z,10.73
2023-05-05T08:30:06.339Z,10.58
2023-05-05T08:32:33.037Z,10.43
2023-05-05T08:35:01.494Z,10.29
2023-05-05T08:37:28.010Z,10.13
2023-05-05T08:39:54.534Z,10.01
2023-05-05T08:42:35.542Z,9.89
2023-05-05T08:45:04.788Z,9.84
2023-05-05T08:47:32.300Z,10.05
2023-05-05T08:49:58.956Z,11.01
2023-05-05T08:52:25.469Z,12.02
2023-05-05T08:54:57.781Z,12.98
2023-05-05T08:57:27.997Z,13.77
2023-05-05T08:59:54.592Z,14.37
2023-05-05T09:02:23.988Z,14.59
2023-05-05T09:04:51.694Z,14.70
2023-05-05T09:07:18.193Z,14.68
2023-05-05T09:09:44.780Z,14.74
2023-05-05T09:12:11.355Z,15.02
2023-05-05T09:14:37.910Z,15.36
2023-05-05T09:17:04.482Z,15.88
2023-05-05T09:19:31.194Z,16.55
2023-05-05T09:21:57.800Z,17.15
2023-05-05T09:24:24.587Z,17.58
2023-05-05T09:26:51.238Z,17.59
2023-05-05T09:29:21.347Z,17.55
2023-05-05T09:32:09.119Z,17.56
2023-05-05T09:34:36.203Z,17.38
2023-05-05T09:37:03.270Z,16.87
2023-05-05T09:39:29.767Z,16.27
2023-05-05T09:41:56.329Z,16.42
2023-05-05T09:44:36.772Z,16.53
2023-05-05T09:47:07.245Z,16.64
2023-05-05T09:49:39.127Z,16.79
2023-05-05T09:52:15.751Z,16.92
2023-05-05T09:54:43.038Z,17.03
2023-05-05T09:57:09.705Z,17.18
2023-05-05T09:59:36.547Z,17.30
2023-05-05T10:02:13.008Z,17.53
2023-05-05T10:04:39.586Z,17.73
2023-05-05T10:07:06.315Z,17.88
2023-05-05T10:09:33.006Z,17.94
2023-05-05T10:11:59.931Z,18.05
2023-05-05T10:14:26.899Z,18.30
2023-05-05T10:16:54.707Z,18.38
2023-05-05T10:19:22.745Z,18.34
2023-05-05T10:21:50.068Z,18.33
2023-05-05T10:24:39.079Z,18.37
2023-05-05T10:27:15.393Z,18.38
2023-05-05T10:29:59.717Z,18.33
2023-05-05T10:35:04.089Z,18.51
2023-05-05T10:37:30.689Z,18.48
2023-05-05T10:40:00.265Z,18.47
2023-05-05T10:42:27.713Z,18.37
2023-05-05T10:44:54.561Z,17.72
2023-05-05T10:47:22.293Z,17.14
2023-05-05T10:50:05.614Z,16.70
2023-05-05T10:52:38.535Z,16.46
2023-05-05T10:55:17.700Z,15.91
2023-05-05T10:57:46.437Z,15.44
2023-05-05T11:00:55.981Z,15.19
2023-05-05T11:03:25.193Z,14.90
2023-05-05T11:06:26.009Z,14.59
2023-05-05T11:08:55.966Z,14.30
2023-05-05T11:11:25.401Z,14.38
2023-05-05T11:13:53.998Z,14.33
2023-05-05T11:16:50.582Z,14.17
2023-05-05T11:19:46.952Z,14.02
2023-05-05T11:22:16.967Z,13.98
2023-05-05T11:24:45.693Z,14.21
2023-05-05T11:27:15.001Z,14.47
2023-05-05T11:30:08.003Z,14.33
2023-05-05T11:32:37.949Z,14.31
2023-05-05T11:35:07.182Z,14.49
2023-05-05T11:37:36.925Z,14.32
2023-05-05T11:40:21.230Z,14.05
2023-05-05T11:42:50.437Z,14.33
2023-05-05T11:45:23.758Z,14.83
2023-05-05T11:47:53.306Z,14.85
2023-05-05T11:50:23.080Z,14.55
2023-05-05T11:52:52.407Z,14.21
2023-05-05T12:02:55.635Z,14.41
2023-05-05T12:05:21.633Z,15.02
2023-05-05T12:07:47.643Z,15.51
2023-05-05T12:10:15.767Z,15.83
2023-05-05T12:12:41.723Z,15.96
2023-05-05T12:15:08.709Z,15.59
2023-05-05T12:17:39.688Z,15.24
2023-05-05T12:20:07.070Z,15.44
2023-05-05T12:22:33.205Z,15.83
2023-05-05T12:25:06.848Z,16.09
2023-05-05T12:27:32.775Z,15.78
2023-05-05T12:30:13.516Z,15.38
2023-05-05T12:32:39.532Z,15.08
2023-05-05T12:35:07.235Z,15.23
2023-05-05T12:37:33.033Z,15.29
2023-05-05T12:39:58.890Z,14.89
2023-05-05T12:42:24.752Z,14.82
2023-05-05T12:44:50.722Z,15.13
2023-05-05T12:47:33.206Z,15.25
2023-05-05T12:49:59.770Z,15.26
2023-05-05T12:52:44.547Z,15.37
2023-05-05T12:55:10.841Z,15.62
2023-05-05T12:57:37.765Z,15.88
2023-05-05T13:00:14.794Z,16.13
2023-05-05T13:02:40.654Z,16.31
2023-05-05T13:05:08.198Z,16.26
2023-05-05T13:07:34.351Z,16.04
2023-05-05T13:10:08.980Z,16.02
2023-05-05T13:12:34.850Z,15.61
2023-05-05T13:15:00.597Z,15.46
2023-05-05T13:17:26.379Z,15.31
2023-05-05T13:19:52.294Z,14.96
2023-05-05T13:22:18.152Z,14.82
2023-05-05T13:24:52.133Z,14.84
2023-05-05T13:27:19.351Z,14.58
2023-05-05T13:29:45.578Z,14.32
2023-05-05T13:32:11.317Z,14.22
2023-05-05T13:34:38.428Z,14.23
2023-05-05T13:37:04.268Z,14.13
2023-05-05T13:39:30.198Z,14.25
2023-05-05T13:41:56.016Z,14.49
2023-05-05T13:44:22.050Z,14.57
2023-05-05T13:46:48.009Z,14.63
2023-05-05T13:49:13.938Z,14.75
2023-05-05T13:51:39.876Z,14.87
2023-05-05T13:54:06.339Z,14.84
2023-05-05T13:56:32.985Z,14.82
2023-05-05T13:58:58.892Z,14.87
2023-05-05T14:01:25.211Z,14.94
2023-05-05T14:03:51.211Z,15.00
2023-05-05T14:06:17.423Z,15.11
2023-05-05T14:08:43.214Z,15.25
2023-05-05T14:11:08.983Z,15.31
2023-05-05T14:13:34.935Z,15.45
2023-05-05T14:16:01.043Z,15.53
2023-05-05T14:18:27.700Z,15.45
2023-05-05T14:20:54.017Z,15.32
2023-05-05T14:23:19.915Z,15.20
2023-05-05T14:25:45.967Z,15.20
2023-05-05T14:28:11.921Z,15.15
2023-05-05T14:30:39.074Z,15.00
2023-05-05T14:33:04.972Z,14.98
2023-05-05T14:35:31.132Z,15.03
2023-05-05T14:37:57.097Z,15.01
2023-05-05T14:40:22.962Z,14.81
2023-05-05T14:42:50.484Z,14.77
2023-05-05T14:45:17.138Z,14.79
2023-05-05T14:47:43.110Z,14.80
2023-05-05T14:50:09.753Z,14.77
2023-05-05T14:52:38.524Z,14.71
2023-05-05T14:55:05.319Z,14.52
2023-05-05T14:57:31.456Z,14.43
2023-05-05T14:59:57.468Z,14.36
2023-05-05T15:02:23.494Z,14.30
2023-05-05T15:04:49.924Z,14.15
2023-05-05T15:07:16.165Z,14.08
2023-05-05T15:09:42.068Z,14.14
2023-05-05T15:12:07.882Z,14.23
2023-05-05T15:14:35.883Z,14.25
2023-05-05T15:17:02.209Z,14.35
2023-05-05T15:19:28.940Z,14.32
2023-05-05T15:21:54.949Z,14.20
2023-05-05T15:24:21.340Z,14.09
2023-05-05T15:26:47.226Z,13.99
2023-05-05T15:29:13.147Z,13.88
2023-05-05T15:31:38.968Z,13.84
2023-05-05T15:34:05.524Z,13.72
2023-05-05T15:36:31.618Z,13.63
2023-05-05T15:38:57.412Z,13.52
2023-05-05T15:41:26.535Z,13.40
2023-05-05T15:43:52.439Z,13.29
2023-05-05T15:46:18.393Z,13.18
2023-05-05T15:48:44.198Z,13.11
2023-05-05T15:51:12.087Z,13.13
2023-05-05T15:53:38.078Z,13.23
2023-05-05T15:56:04.223Z,13.25
2023-05-05T15:58:30.443Z,13.22
2023-05-05T16:00:56.311Z,13.13
2023-05-05T16:03:22.195Z,12.88
2023-05-05T16:05:48.158Z,12.79
2023-05-05T16:08:13.973Z,12.62
2023-05-05T16:10:40.256Z,12.44
2023-05-05T16:13:06.135Z,12.33
2023-05-05T16:15:32.315Z,12.18
2023-05-05T16:17:58.221Z,12.17
2023-05-05T16:20:24.037Z,12.11
2023-05-05T16:22:50.170Z,12.07
2023-05-05T16:25:17.780Z,11.96
2023-05-05T16:27:43.704Z,11.83
2023-05-05T16:30:12.245Z,11.77
2023-05-05T16:32:38.130Z,11.68
2023-05-05T16:35:06.407Z,11.61
2023-05-05T16:37:32.540Z,11.54
2023-05-05T16:39:59.909Z,11.46
2023-05-05T16:42:25.738Z,11.34
2023-05-05T16:44:51.605Z,11.29
2023-05-05T16:47:17.472Z,11.20
2023-05-05T16:52:09.522Z,10.95
2023-05-05T16:54:35.325Z,10.84
2023-05-05T16:57:03.275Z,10.70
2023-05-05T16:59:31.406Z,10.49
2023-05-05T17:01:57.592Z,10.35
2023-05-05T17:04:23.524Z,10.20
2023-05-05T17:06:50.201Z,10.00
2023-05-05T17:09:15.985Z,9.80
2023-05-05T17:11:41.918Z,9.65
2023-05-05T17:14:07.660Z,9.53
2023-05-05T17:16:33.924Z,9.40
2023-05-05T17:18:59.998Z,9.25
2023-05-05T17:21:26.219Z,9.32
2023-05-05T17:23:52.035Z,9.36
2023-05-05T17:26:17.952Z,9.36
2023-05-05T17:28:43.821Z,9.30
2023-05-05T17:31:09.604Z,9.09
2023-05-05T17:33:35.451Z,9.01
2023-05-05T17:36:01.271Z,8.88
2023-05-05T17:38:27.613Z,8.76
2023-05-05T17:40:53.513Z,8.66
2023-05-05T17:43:19.358Z,8.53
2023-05-05T17:45:46.092Z,8.39
2023-05-05T17:48:11.995Z,8.24
2023-05-05T17:50:37.887Z,8.13
2023-05-05T17:53:04.338Z,8.07
2023-05-05T17:55:30.256Z,7.93
2023-05-05T17:57:56.770Z,7.85
2023-05-05T18:00:22.669Z,7.75
2023-05-05T18:02:48.718Z,7.60
2023-05-05T18:05:14.651Z,7.61
2023-05-05T18:07:40.680Z,7.55
2023-05-05T18:10:07.734Z,7.51
2023-05-05T18:12:33.669Z,7.50
2023-05-05T18:15:00.982Z,7.51
2023-05-05T18:17:26.827Z,7.49
2023-05-05T18:19:52.622Z,7.47
2023-05-05T18:22:18.446Z,7.51
2023-05-05T18:24:45.811Z,7.58
2023-05-05T18:27:11.675Z,7.65
2023-05-05T18:29:37.691Z,7.69
2023-05-05T18:32:05.549Z,7.68
2023-05-05T18:34:32.170Z,7.68
2023-05-05T18:36:58.135Z,7.77
2023-05-05T18:39:24.016Z,7.75
2023-05-05T18:41:49.924Z,7.67
2023-05-05T18:44:15.761Z,7.78
2023-05-05T18:46:42.693Z,7.84
2023-05-05T18:49:08.759Z,7.86
2023-05-05T18:51:34.637Z,7.92
2023-05-05T18:54:00.682Z,7.93
2023-05-05T18:56:26.993Z,7.96
2023-05-05T18:58:53.087Z,7.85
2023-05-05T19:01:19.741Z,7.75
2023-05-05T19:03:47.643Z,7.69
2023-05-05T19:06:13.700Z,7.73
2023-05-05T19:08:39.727Z,7.75
2023-05-05T19:11:05.598Z,7.82
2023-05-05T19:13:31.519Z,7.83
2023-05-05T19:15:57.364Z,7.72
2023-05-05T19:18:23.769Z,7.61
2023-05-05T19:20:49.670Z,7.57
2023-05-05T19:23:15.484Z,7.58
2023-05-05T19:25:42.140Z,7.53
2023-05-05T19:28:09.206Z,7.50
2023-05-05T19:30:35.423Z,7.52
2023-05-05T19:33:01.469Z,7.55
2023-05-05T19:35:29.105Z,7.48
2023-05-05T19:37:55.269Z,7.63
2023-05-05T19:40:21.144Z,7.72
2023-05-05T19:42:47.119Z,7.81
2023-05-05T19:45:12.962Z,7.82
2023-05-05T19:47:38.812Z,7.80
2023-05-05T19:50:05.181Z,7.84
2023-05-05T19:52:31.172Z,7.87
2023-05-05T19:54:57.924Z,7.91
2023-05-05T19:57:23.841Z,7.82
2023-05-05T19:59:49.667Z,7.71
2023-05-05T20:02:16.402Z,7.57
2023-05-05T20:04:43.255Z,7.47
2023-05-05T20:07:09.133Z,7.39
2023-05-05T20:09:37.065Z,7.55
2023-05-05T20:12:03.443Z,7.86
2023-05-05T20:14:29.193Z,8.01
2023-05-05T20:16:55.105Z,8.00
2023-05-05T20:19:21.025Z,8.00
2023-05-05T20:21:46.860Z,8.06
2023-05-05T20:24:12.727Z,8.08
2023-05-05T20:26:38.474Z,8.03
2023-05-05T20:29:04.255Z,8.07
2023-05-05T20:31:30.473Z,8.10
2023-05-05T20:33:56.458Z,8.14
2023-05-05T20:36:25.591Z,8.18
2023-05-05T20:38:52.015Z,8.21
2023-05-05T20:41:18.007Z,8.16
2023-05-05T20:43:43.796Z,7.88
2023-05-05T20:46:12.831Z,7.53
2023-05-05T20:48:42.470Z,7.44
2023-05-05T20:51:09.072Z,7.37
2023-05-05T20:53:35.032Z,7.31
2023-05-05T20:56:00.909Z,7.27
2023-05-05T20:58:26.781Z,7.04
2023-05-05T21:00:52.712Z,6.85
2023-05-05T21:03:18.852Z,6.81
2023-05-05T21:05:44.731Z,6.77
2023-05-05T21:08:10.661Z,6.67
2023-05-05T21:10:36.480Z,6.56
2023-05-05T21:13:02.287Z,6.37
2023-05-05T21:15:28.402Z,6.27
2023-05-05T21:17:55.019Z,6.23
2023-05-05T21:20:20.931Z,6.22
2023-05-05T21:22:46.778Z,6.10
2023-05-05T21:25:17.877Z,6.07
2023-05-05T21:27:43.752Z,5.91
2023-05-05T21:30:11.155Z,5.80
2023-05-05T21:32:38.448Z,5.86
2023-05-05T21:35:05.652Z,5.83
2023-05-05T21:37:31.538Z,5.83
2023-05-05T21:39:57.384Z,5.74
2023-05-05T21:42:23.362Z,5.80
2023-05-05T21:44:49.155Z,5.77
2023-05-05T21:47:15.771Z,5.77
2023-05-05T21:49:41.649Z,5.79
2023-05-05T21:52:07.661Z,5.83
2023-05-05T21:54:33.590Z,5.84
2023-05-05T21:57:00.002Z,5.92
2023-05-05T21:59:25.962Z,5.88
2023-05-05T22:01:51.856Z,5.88
2023-05-05T22:04:17.815Z,5.85
2023-05-05T22:06:43.621Z,5.79
2023-05-05T22:09:09.570Z,5.75
2023-05-05T22:11:35.369Z,5.73
2023-05-05T22:14:01.265Z,5.73
2023-05-05T22:16:27.128Z,5.64
2023-05-05T22:18:52.927Z,5.67
2023-05-05T22:21:20.576Z,5.75
2023-05-05T22:23:46.689Z,5.73
2023-05-05T22:26:12.519Z,5.71
2023-05-05T22:28:38.280Z,5.66
2023-05-05T22:31:04.111Z,5.64
2023-05-05T22:33:30.067Z,5.59
2023-05-05T22:35:56.225Z,5.45
2023-05-05T22:38:22.105Z,5.38
2023-05-05T22:40:48.651Z,5.39
2023-05-05T22:43:14.558Z,5.35
2023-05-05T22:45:40.592Z,5.32
2023-05-05T22:48:06.555Z,5.30
2023-05-05T22:50:32.548Z,5.27
2023-05-05T22:52:58.374Z,5.24
2023-05-05T22:55:24.195Z,5.32
2023-05-05T22:57:51.862Z,5.27
2023-05-05T23:00:17.886Z,5.22
2023-05-05T23:02:43.758Z,5.14
2023-05-05T23:05:09.889Z,5.14
2023-05-05T23:07:36.134Z,5.19
2023-05-05T23:10:03.104Z,5.27
2023-05-05T23:12:29.189Z,5.37
2023-05-05T23:14:55.343Z,5.44
2023-05-05T23:17:21.224Z,5.50
2023-05-05T23:19:47.642Z,5.57
2023-05-05T23:22:13.585Z,5.58
2023-05-05T23:24:39.556Z,5.59
2023-05-05T23:27:05.318Z,5.61
2023-05-05T23:29:31.273Z,5.61
2023-05-05T23:31:57.420Z,5.47
2023-05-05T23:34:23.564Z,5.45
2023-05-05T23:36:49.450Z,5.35
2023-05-05T23:39:15.946Z,5.25
2023-05-05T23:41:41.819Z,5.16
2023-05-05T23:44:07.710Z,5.02
2023-05-05T23:46:33.629Z,4.90
2023-05-05T23:48:59.415Z,4.80
2023-05-05T23:51:26.640Z,4.75
2023-05-05T23:53:52.748Z,4.75
2023-05-05T23:56:19.246Z,4.69
2023-05-05T23:58:45.313Z,4.70
